createdAt,value
2022-08-11T00:01:54.411Z,4.85
2022-08-11T00:04:23.902Z,4.80
2022-08-11T00:06:50.822Z,5.03
2022-08-11T00:09:19.658Z,5.47
2022-08-11T00:11:51.303Z,5.82
2022-08-11T00:14:23.224Z,5.07
2022-08-11T00:17:08.082Z,4.90
2022-08-11T00:20:15.193Z,5.18
2022-08-11T00:22:23.580Z,5.40
2022-08-11T00:24:53.741Z,5.63
2022-08-11T00:27:36.044Z,5.95
2022-08-11T00:30:04.432Z,4.85
2022-08-11T00:32:31.375Z,5.20
2022-08-11T00:35:52.558Z,5.55
2022-08-11T00:37:49.406Z,4.97
2022-08-11T00:40:20.930Z,4.95
2022-08-11T00:43:43.310Z,5.05
2022-08-11T00:46:40.505Z,5.05
2022-08-11T00:49:40.291Z,6.35
2022-08-11T00:52:37.972Z,5.25
2022-08-11T00:55:27.560Z,4.78
2022-08-11T00:58:13.087Z,4.18
2022-08-11T01:01:06.471Z,5.40
2022-08-11T01:03:42.473Z,5.18
2022-08-11T01:06:15.479Z,5.55
2022-08-11T01:08:57.315Z,5.22
2022-08-11T01:11:57.153Z,4.78
2022-08-11T01:14:36.103Z,4.47
2022-08-11T01:17:05.805Z,4.97
2022-08-11T01:20:38.592Z,5.88
2022-08-11T01:23:31.307Z,4.88
2022-08-11T01:26:20.732Z,4.97
2022-08-11T01:29:26.479Z,5.25
2022-08-11T01:31:56.859Z,5.60
2022-08-11T01:34:27.404Z,5.50
2022-08-11T01:37:31.647Z,4.63
2022-08-11T01:40:10.704Z,5.22
2022-08-11T01:43:34.581Z,5.55
2022-08-11T01:46:23.073Z,5.35
2022-08-11T01:50:06.641Z,5.10
2022-08-11T01:52:15.503Z,4.80
2022-08-11T01:54:54.553Z,4.93
2022-08-11T01:57:29.542Z,4.75
2022-08-11T02:00:09.578Z,5.03
2022-08-11T02:03:25.712Z,4.75
2022-08-11T02:06:31.151Z,4.60
2022-08-11T02:09:06.603Z,5.78
2022-08-11T02:11:35.307Z,5.93
2022-08-11T02:14:34.400Z,5.30
2022-08-11T02:17:11.300Z,4.95
2022-08-11T02:20:27.559Z,4.90
2022-08-11T02:24:05.954Z,4.97
2022-08-11T02:26:43.403Z,4.90
2022-08-11T02:29:20.609Z,4.95
2022-08-11T02:32:25.008Z,5.40
2022-08-11T02:35:02.508Z,5.28
2022-08-11T02:37:32.460Z,5.57
2022-08-11T02:39:59.361Z,5.10
2022-08-11T02:42:52.633Z,5.72
2022-08-11T02:45:46.376Z,5.57
2022-08-11T02:49:07.282Z,4.55
2022-08-11T02:51:42.570Z,5.45
2022-08-11T02:54:27.536Z,5.55
2022-08-11T02:56:57.189Z,6.35
2022-08-11T02:59:53.374Z,5.55
2022-08-11T03:02:32.599Z,6.25
2022-08-11T03:05:08.300Z,5.85
2022-08-11T03:07:52.900Z,5.97
2022-08-11T03:10:33.102Z,5.82
2022-08-11T03:13:30.073Z,6.28
2022-08-11T03:16:40.211Z,5.93
2022-08-11T03:19:19.113Z,6.15
2022-08-11T03:22:23.763Z,5.03
2022-08-11T03:25:03.913Z,6.60
2022-08-11T03:27:54.309Z,6.43
2022-08-11T03:30:45.398Z,5.60
2022-08-11T03:33:48.534Z,5.32
2022-08-11T03:36:57.630Z,5.88
2022-08-11T03:39:33.394Z,4.85
2022-08-11T03:42:18.929Z,4.80
2022-08-11T03:45:07.350Z,4.57
2022-08-11T03:47:55.945Z,4.35
2022-08-11T03:50:41.782Z,5.40
2022-08-11T03:53:38.105Z,4.20
2022-08-11T03:56:11.699Z,4.35
2022-08-11T03:59:17.284Z,4.38
2022-08-11T04:02:06.060Z,4.00
2022-08-11T04:04:54.858Z,4.10
2022-08-11T04:07:43.581Z,4.70
2022-08-11T04:10:56.208Z,4.20
2022-08-11T04:13:44.991Z,4.57
2022-08-11T04:17:05.860Z,4.85
2022-08-11T04:19:51.064Z,4.88
2022-08-11T04:22:39.281Z,5.15
2022-08-11T04:25:58.094Z,4.25
2022-08-11T04:28:49.976Z,5.15
2022-08-11T04:31:51.779Z,4.80
2022-08-11T04:34:36.142Z,5.00
2022-08-11T04:37:31.697Z,4.45
2022-08-11T04:40:36.920Z,4.93
2022-08-11T04:43:27.689Z,5.13
2022-08-11T04:46:13.720Z,5.28
2022-08-11T04:49:36.293Z,5.30
2022-08-11T04:52:40.610Z,5.63
2022-08-11T04:55:44.347Z,4.85
2022-08-11T04:58:40.364Z,5.68
2022-08-11T05:01:43.962Z,5.30
2022-08-11T05:04:44.800Z,5.60
2022-08-11T05:07:29.796Z,6.15
2022-08-11T05:10:11.563Z,9.48
2022-08-11T05:12:52.127Z,8.52
2022-08-11T05:15:42.529Z,7.20
2022-08-11T05:18:34.386Z,9.80
2022-08-11T05:21:25.224Z,8.55
2022-08-11T05:24:29.774Z,7.15
2022-08-11T05:27:14.855Z,8.88
2022-08-11T05:30:07.613Z,7.03
2022-08-11T05:33:02.000Z,8.15
2022-08-11T05:36:02.399Z,6.53
2022-08-11T05:38:50.502Z,6.38
2022-08-11T05:41:37.779Z,6.18
2022-08-11T05:44:23.452Z,5.65
2022-08-11T05:47:09.278Z,5.65
2022-08-11T05:49:54.282Z,6.38
2022-08-11T05:52:44.723Z,7.65
2022-08-11T05:55:32.616Z,7.15
2022-08-11T05:58:05.325Z,6.85
2022-08-11T06:00:32.399Z,7.60
2022-08-11T06:03:01.433Z,7.88
2022-08-11T06:05:38.301Z,7.88
2022-08-11T06:08:10.703Z,7.82
2022-08-11T06:10:38.868Z,8.52
2022-08-11T06:13:06.772Z,7.75
2022-08-11T06:15:37.205Z,8.35
2022-08-11T06:18:04.272Z,7.72
2022-08-11T06:20:37.612Z,8.18
2022-08-11T06:23:06.983Z,10.85
2022-08-11T06:25:35.912Z,10.10
2022-08-11T06:28:06.819Z,12.13
2022-08-11T06:30:35.192Z,13.70
2022-08-11T06:33:02.261Z,13.90
2022-08-11T06:35:54.284Z,14.38
2022-08-11T06:38:48.137Z,15.40
2022-08-11T06:41:31.335Z,15.73
2022-08-11T06:44:11.890Z,15.57
2022-08-11T06:46:39.959Z,14.07
2022-08-11T06:49:27.519Z,15.90
2022-08-11T06:52:01.785Z,13.32
2022-08-11T06:54:35.412Z,14.35
2022-08-11T06:57:35.950Z,14.07
2022-08-11T07:00:21.436Z,14.95
2022-08-11T07:03:10.883Z,15.02
2022-08-11T07:05:37.787Z,14.73
2022-08-11T07:08:48.481Z,15.68
2022-08-11T07:12:07.800Z,14.27
2022-08-11T07:14:53.357Z,13.48
2022-08-11T07:17:22.945Z,14.60
2022-08-11T07:20:18.559Z,12.88
2022-08-11T07:23:10.767Z,13.48
2022-08-11T07:25:57.994Z,12.77
2022-08-11T07:28:43.872Z,12.25
2022-08-11T07:31:14.062Z,11.02
2022-08-11T07:34:06.872Z,12.60
2022-08-11T07:36:38.691Z,12.90
2022-08-11T07:39:05.676Z,14.10
2022-08-11T07:41:34.556Z,13.02
2022-08-11T07:44:09.116Z,13.20
2022-08-11T07:46:59.109Z,14.60
2022-08-11T07:49:47.127Z,13.95
2022-08-11T07:52:33.824Z,15.50
2022-08-11T07:55:15.362Z,14.57
2022-08-11T07:58:16.724Z,16.23
2022-08-11T08:01:10.079Z,14.65
2022-08-11T08:04:06.686Z,14.73
2022-08-11T08:06:52.281Z,15.40
2022-08-11T08:09:38.516Z,14.25
2022-08-11T08:12:24.285Z,14.45
2022-08-11T08:15:10.370Z,13.75
2022-08-11T08:18:09.377Z,14.10
2022-08-11T08:20:45.574Z,13.73
2022-08-11T08:23:12.558Z,13.57
2022-08-11T08:25:40.708Z,12.68
2022-08-11T08:28:14.248Z,12.57
2022-08-11T08:30:56.290Z,13.82
2022-08-11T08:33:24.980Z,13.18
2022-08-11T08:36:12.294Z,14.38
2022-08-11T08:38:49.755Z,12.90
2022-08-11T08:41:25.092Z,13.73
2022-08-11T08:43:53.776Z,15.70
2022-08-11T08:46:28.036Z,15.55
2022-08-11T08:48:54.974Z,14.57
2022-08-11T08:51:58.680Z,14.27
2022-08-11T08:54:27.064Z,14.70
2022-08-11T08:56:55.393Z,15.18
2022-08-11T08:59:23.638Z,15.40
2022-08-11T09:01:58.426Z,13.80
2022-08-11T09:04:25.980Z,13.73
2022-08-11T09:06:53.402Z,13.30
2022-08-11T09:09:20.974Z,12.80
2022-08-11T09:11:50.960Z,10.40
2022-08-11T09:14:18.432Z,10.27
2022-08-11T09:16:45.419Z,9.65
2022-08-11T09:19:14.424Z,11.20
2022-08-11T09:24:37.005Z,11.55
2022-08-11T09:27:07.573Z,12.23
2022-08-11T09:29:34.473Z,11.55
2022-08-11T09:32:01.466Z,10.55
2022-08-11T09:34:28.359Z,11.63
2022-08-11T09:37:14.116Z,12.55
2022-08-11T09:40:19.427Z,11.65
2022-08-11T09:43:04.919Z,10.18
2022-08-11T09:45:39.974Z,11.32
2022-08-11T09:48:07.465Z,10.18
2022-08-11T09:50:34.901Z,9.63
2022-08-11T09:53:36.756Z,10.30
2022-08-11T09:55:53.027Z,9.63
2022-08-11T09:58:42.365Z,9.25
2022-08-11T10:01:08.033Z,7.68
2022-08-11T10:03:38.309Z,6.80
2022-08-11T10:06:34.284Z,6.47
2022-08-11T10:09:03.206Z,6.78
2022-08-11T10:11:30.089Z,6.15
2022-08-11T10:14:33.130Z,5.78
2022-08-11T10:17:04.449Z,6.70
2022-08-11T10:19:31.424Z,6.55
2022-08-11T10:22:16.620Z,5.88
2022-08-11T10:25:01.942Z,6.10
2022-08-11T10:27:29.150Z,5.45
2022-08-11T10:30:34.182Z,4.90
2022-08-11T10:33:36.975Z,4.75
2022-08-11T10:36:16.507Z,5.28
2022-08-11T10:38:45.904Z,5.20
2022-08-11T10:41:32.083Z,5.10
2022-08-11T10:44:02.825Z,4.22
2022-08-11T10:46:49.497Z,4.85
2022-08-11T10:49:16.346Z,4.38
2022-08-11T10:52:01.754Z,5.78
2022-08-11T10:54:47.095Z,3.40
2022-08-11T10:57:33.777Z,3.70
2022-08-11T11:00:00.660Z,5.70
2022-08-11T11:02:27.592Z,3.80
2022-08-11T11:05:03.524Z,3.60
2022-08-11T11:07:44.062Z,4.35
2022-08-11T11:10:11.557Z,3.72
2022-08-11T11:13:29.595Z,3.05
2022-08-11T11:16:14.871Z,3.67
2022-08-11T11:18:41.735Z,3.17
2022-08-11T11:21:10.479Z,3.55
2022-08-11T11:26:37.232Z,2.92
2022-08-11T11:29:28.071Z,2.80
2022-08-11T11:32:09.774Z,3.10
2022-08-11T11:34:55.203Z,2.55
2022-08-11T11:37:25.559Z,2.65
2022-08-11T11:39:53.530Z,3.45
2022-08-11T11:42:20.470Z,2.65
2022-08-11T11:44:47.457Z,2.78
2022-08-11T11:47:14.547Z,3.15
2022-08-11T11:49:44.071Z,2.53
2022-08-11T11:52:19.185Z,2.67
2022-08-11T11:54:50.470Z,3.30
2022-08-11T11:57:36.772Z,2.55
2022-08-11T12:00:33.401Z,2.60
2022-08-11T12:03:05.818Z,2.85
2022-08-11T12:05:34.561Z,1.80
2022-08-11T12:10:49.091Z,2.38
2022-08-11T12:13:35.802Z,2.40
2022-08-11T12:16:34.931Z,2.30
2022-08-11T12:18:53.466Z,2.47
2022-08-11T12:21:20.553Z,1.90
2022-08-11T12:24:08.089Z,1.75
2022-08-11T12:27:15.311Z,2.37
2022-08-11T12:29:41.462Z,2.30
2022-08-11T12:32:11.168Z,2.33
2022-08-11T12:34:38.100Z,2.83
2022-08-11T12:37:14.036Z,2.38
2022-08-11T12:40:17.082Z,2.00
2022-08-11T12:43:21.143Z,1.85
2022-08-11T12:45:59.020Z,2.00
2022-08-11T12:48:59.027Z,2.05
2022-08-11T12:52:12.172Z,1.92
2022-08-11T12:55:00.028Z,1.80
2022-08-11T12:57:56.471Z,1.98
2022-08-11T13:00:42.374Z,3.25
2022-08-11T13:03:29.208Z,2.40
2022-08-11T13:05:57.778Z,1.90
2022-08-11T13:11:12.122Z,2.05
2022-08-11T13:13:54.455Z,3.25
2022-08-11T13:16:29.669Z,2.25
2022-08-11T13:19:01.327Z,2.28
2022-08-11T13:21:28.612Z,2.10
2022-08-11T13:23:59.476Z,2.50
2022-08-11T13:26:43.690Z,2.08
2022-08-11T13:29:24.383Z,2.05
2022-08-11T13:31:52.886Z,2.15
2022-08-11T13:34:20.501Z,3.50
2022-08-11T13:36:52.525Z,2.30
2022-08-11T13:39:20.796Z,2.42
2022-08-11T13:41:50.761Z,2.78
2022-08-11T13:44:23.135Z,2.28
2022-08-11T13:46:53.147Z,2.10
2022-08-11T13:49:20.367Z,3.20
2022-08-11T13:51:47.405Z,2.28
2022-08-11T13:54:19.018Z,2.42
2022-08-11T13:56:47.035Z,2.08
2022-08-11T13:59:15.058Z,1.88
2022-08-11T14:02:19.142Z,2.10
2022-08-11T14:04:59.444Z,2.10
2022-08-11T14:07:30.000Z,2.20
2022-08-11T14:09:58.632Z,1.58
2022-08-11T14:15:29.599Z,2.45
2022-08-11T14:18:01.851Z,1.70
2022-08-11T14:20:49.116Z,1.98
2022-08-11T14:23:16.037Z,2.05
2022-08-11T14:26:03.004Z,1.60
2022-08-11T14:28:37.500Z,1.80
2022-08-11T14:31:07.322Z,1.98
2022-08-11T14:33:59.503Z,2.70
2022-08-11T14:36:25.180Z,2.58
2022-08-11T14:38:53.770Z,1.65
2022-08-11T14:44:44.620Z,3.10
2022-08-11T14:47:23.901Z,2.75
2022-08-11T14:50:09.599Z,2.63
2022-08-11T14:52:38.479Z,2.60
2022-08-11T14:55:24.320Z,2.97
2022-08-11T14:58:04.550Z,2.88
2022-08-11T15:00:32.841Z,2.65
2022-08-11T15:03:12.912Z,3.13
2022-08-11T15:05:56.522Z,2.00
2022-08-11T15:08:48.597Z,1.65
2022-08-11T15:11:35.288Z,2.08
2022-08-11T15:14:03.651Z,2.00
2022-08-11T15:16:49.360Z,2.22
2022-08-11T15:19:16.284Z,2.00
2022-08-11T15:22:04.154Z,1.80
2022-08-11T15:24:31.249Z,2.70
2022-08-11T15:27:16.755Z,2.20
2022-08-11T15:30:01.992Z,2.03
2022-08-11T15:32:47.440Z,2.35
2022-08-11T15:35:33.659Z,2.20
2022-08-11T15:38:06.420Z,2.40
2022-08-11T15:40:55.586Z,1.88
2022-08-11T15:43:40.962Z,2.10
2022-08-11T15:46:22.872Z,2.00
2022-08-11T15:48:56.391Z,2.38
2022-08-11T15:51:44.049Z,2.25
2022-08-11T15:54:13.349Z,2.15
2022-08-11T15:56:41.957Z,3.10
2022-08-11T16:02:31.240Z,2.03
2022-08-11T16:04:58.890Z,2.17
2022-08-11T16:07:27.480Z,2.40
2022-08-11T16:10:07.664Z,2.72
2022-08-11T16:12:39.983Z,2.65
2022-08-11T16:15:26.672Z,2.65
2022-08-11T16:17:59.790Z,3.35
2022-08-11T16:20:27.830Z,2.65
2022-08-11T16:23:02.486Z,2.28
2022-08-11T16:27:05.340Z,2.75
2022-08-11T16:28:17.054Z,1.92
2022-08-11T16:30:46.491Z,2.00
2022-08-11T16:33:48.984Z,2.10
2022-08-11T16:36:18.636Z,1.85
2022-08-11T16:38:45.480Z,2.30
2022-08-11T16:41:14.160Z,2.38
2022-08-11T16:44:04.383Z,2.03
2022-08-11T16:46:50.118Z,2.13
2022-08-11T16:49:19.158Z,2.30
2022-08-11T16:51:46.025Z,2.30
2022-08-11T16:54:12.951Z,1.95
2022-08-11T16:56:46.138Z,2.20
2022-08-11T16:59:24.459Z,2.20
2022-08-11T17:01:55.207Z,2.00
2022-08-11T17:04:47.821Z,2.53
2022-08-11T17:07:23.910Z,2.28
2022-08-11T17:10:39.027Z,2.47
2022-08-11T17:13:12.368Z,2.33
2022-08-11T17:16:06.123Z,2.17
2022-08-11T17:19:06.884Z,1.85
2022-08-11T17:21:58.098Z,2.30
2022-08-11T17:24:27.571Z,2.10
2022-08-11T17:26:58.492Z,2.05
2022-08-11T17:29:53.339Z,2.25
2022-08-11T17:32:56.204Z,2.33
2022-08-11T17:35:31.753Z,3.75
2022-08-11T17:38:04.084Z,2.15
2022-08-11T17:40:31.989Z,2.20
2022-08-11T17:43:17.664Z,2.33
2022-08-11T17:46:04.169Z,2.10
2022-08-11T17:48:36.585Z,2.10
2022-08-11T17:51:38.081Z,2.60
2022-08-11T17:54:25.411Z,2.40
2022-08-11T17:57:20.514Z,2.55
2022-08-11T17:59:57.762Z,2.60
2022-08-11T18:02:51.824Z,2.13
2022-08-11T18:05:20.261Z,2.00
2022-08-11T18:08:07.397Z,2.28
2022-08-11T18:10:52.741Z,2.45
2022-08-11T18:13:42.007Z,2.45
2022-08-11T18:16:27.623Z,2.20
2022-08-11T18:19:13.281Z,1.88
2022-08-11T18:22:14.385Z,1.75
2022-08-11T18:25:03.831Z,2.00
2022-08-11T18:30:35.080Z,2.58
2022-08-11T18:36:26.296Z,2.42
2022-08-11T18:39:11.578Z,2.10
2022-08-11T18:41:56.753Z,2.30
2022-08-11T18:44:44.835Z,2.25
2022-08-11T18:47:30.931Z,2.35
2022-08-11T18:50:33.369Z,2.80
2022-08-11T18:53:23.951Z,2.33
2022-08-11T18:56:09.119Z,2.20
2022-08-11T18:58:54.354Z,2.30
2022-08-11T19:01:43.029Z,2.63
2022-08-11T19:04:30.869Z,3.05
2022-08-11T19:07:20.554Z,2.88
2022-08-11T19:10:06.098Z,2.63
2022-08-11T19:12:57.838Z,2.33
2022-08-11T19:15:43.624Z,2.10
2022-08-11T19:18:33.930Z,2.25
2022-08-11T19:21:19.092Z,2.45
2022-08-11T19:24:08.659Z,2.60
2022-08-11T19:26:53.930Z,2.30
2022-08-11T19:30:07.385Z,2.60
2022-08-11T19:32:45.740Z,2.20
2022-08-11T19:35:31.343Z,2.60
2022-08-11T19:38:16.510Z,2.58
2022-08-11T19:41:01.606Z,4.03
2022-08-11T19:43:47.576Z,2.42
2022-08-11T19:46:32.682Z,2.72
2022-08-11T19:49:18.523Z,2.47
2022-08-11T19:52:03.826Z,3.05
2022-08-11T19:54:51.085Z,3.17
2022-08-11T19:57:40.012Z,2.63
2022-08-11T20:00:31.814Z,2.53
2022-08-11T20:03:18.101Z,3.20
2022-08-11T20:06:04.227Z,2.45
2022-08-11T20:08:49.318Z,2.67
2022-08-11T20:11:34.931Z,2.92
2022-08-11T20:14:20.585Z,3.13
2022-08-11T20:17:06.039Z,2.88
2022-08-11T20:19:56.586Z,2.60
2022-08-11T20:22:43.775Z,2.88
2022-08-11T20:25:29.182Z,2.70
2022-08-11T20:28:14.256Z,2.58
2022-08-11T20:31:01.496Z,3.20
2022-08-11T20:33:47.294Z,3.10
2022-08-11T20:36:32.531Z,5.25
2022-08-11T20:39:18.332Z,3.15
2022-08-11T20:42:03.998Z,3.35
2022-08-11T20:44:49.279Z,3.03
2022-08-11T20:47:56.807Z,3.17
2022-08-11T20:50:41.845Z,3.13
2022-08-11T20:53:32.024Z,3.40
2022-08-11T20:56:21.915Z,3.30
2022-08-11T20:59:18.119Z,3.70
2022-08-11T21:02:05.457Z,3.13
2022-08-11T21:04:56.679Z,3.42
2022-08-11T21:07:43.157Z,3.05
2022-08-11T21:10:35.375Z,3.05
2022-08-11T21:13:27.085Z,3.35
2022-08-11T21:16:26.577Z,3.30
2022-08-11T21:19:59.825Z,3.33
2022-08-11T21:22:59.190Z,3.35
2022-08-11T21:25:51.668Z,3.50
2022-08-11T21:28:37.337Z,3.25
2022-08-11T21:31:23.035Z,3.50
2022-08-11T21:34:08.206Z,3.45
2022-08-11T21:36:53.605Z,3.55
2022-08-11T21:39:40.559Z,3.58
2022-08-11T21:42:26.249Z,3.92
2022-08-11T21:45:11.596Z,3.58
2022-08-11T21:48:01.151Z,3.65
2022-08-11T21:50:47.506Z,4.05
2022-08-11T21:53:33.730Z,4.50
2022-08-11T21:56:19.975Z,4.28
2022-08-11T21:59:06.994Z,4.15
2022-08-11T22:01:52.956Z,4.30
2022-08-11T22:04:38.753Z,4.93
2022-08-11T22:07:23.906Z,4.78
2022-08-11T22:10:27.316Z,4.43
2022-08-11T22:13:14.545Z,3.80
2022-08-11T22:15:59.988Z,4.45
2022-08-11T22:18:45.305Z,4.07
2022-08-11T22:22:01.426Z,4.28
2022-08-11T22:24:36.309Z,4.95
2022-08-11T22:27:23.293Z,4.50
2022-08-11T22:30:08.483Z,4.60
2022-08-11T22:32:54.304Z,3.70
2022-08-11T22:35:40.123Z,4.95
2022-08-11T22:38:25.805Z,4.00
2022-08-11T22:41:10.995Z,4.40
2022-08-11T22:43:56.283Z,5.13
2022-08-11T22:46:41.763Z,4.85
2022-08-11T22:49:28.229Z,4.18
2022-08-11T22:52:27.815Z,4.90
2022-08-11T22:55:13.628Z,4.35
2022-08-11T22:58:01.205Z,4.53
2022-08-11T23:00:47.100Z,4.57
2022-08-11T23:03:37.620Z,4.38
2022-08-11T23:06:24.234Z,4.53
2022-08-11T23:09:09.872Z,4.28
2022-08-11T23:12:06.281Z,5.22
2022-08-11T23:14:54.178Z,5.73
2022-08-11T23:17:39.974Z,5.28
2022-08-11T23:20:29.789Z,4.70
2022-08-11T23:23:29.048Z,5.82
2022-08-11T23:26:14.890Z,5.45
2022-08-11T23:29:01.938Z,5.28
2022-08-11T23:31:51.722Z,5.55
2022-08-11T23:35:04.324Z,5.28
2022-08-11T23:37:47.814Z,6.25
2022-08-11T23:40:33.044Z,5.40
2022-08-11T23:43:18.272Z,5.78
2022-08-11T23:46:03.727Z,5.30
2022-08-11T23:48:49.532Z,6.47
2022-08-11T23:51:38.713Z,6.47
2022-08-11T23:54:26.366Z,5.57
2022-08-11T23:57:11.925Z,6.57
2022-08-11T23:59:57.532Z,5.75
